Time;durP1;ratioP1;P1;durP2;ratioP2;P2;SDS_P1;SDS_P2;PMS_P1;PMS_P2;Temp;Humidity;BMP_temperature;BMP_pressure;BME280_temperature;BME280_humidity;BME280_pressure;Samples;Min_cycle;Max_cycle;Signal;HPM_P1;HPM_P2
2022/05/18 00:02:13;;;;;;;7.57;2.25;;;19.30;78.00;;;;;;4974429;28;20501;-73
2022/05/18 00:04:40;;;;;;;5.43;2.40;;;19.30;78.20;;;;;;4975529;28;20047;-73
2022/05/18 00:07:08;;;;;;;4.13;2.20;;;19.20;78.30;;;;;;4981964;28;20062;-73
2022/05/18 00:09:35;;;;;;;7.80;2.50;;;19.20;78.30;;;;;;4983121;28;20060;-74
2022/05/18 00:12:03;;;;;;;6.63;2.50;;;19.20;78.30;;;;;;4978340;28;20038;-74
2022/05/18 00:14:30;;;;;;;5.65;2.10;;;19.20;78.30;;;;;;4976973;28;20045;-73
2022/05/18 00:16:59;;;;;;;5.38;2.25;;;19.20;78.30;;;;;;4980238;28;20044;-74
2022/05/18 00:19:26;;;;;;;7.95;2.58;;;19.20;78.50;;;;;;4979112;28;20055;-75
2022/05/18 00:21:54;;;;;;;5.13;2.30;;;19.10;78.60;;;;;;4976423;28;20046;-74
2022/05/18 00:24:22;;;;;;;5.57;2.50;;;19.10;78.50;;;;;;4978896;28;20038;-74
2022/05/18 00:26:49;;;;;;;5.38;2.30;;;19.10;78.40;;;;;;4976413;28;20042;-75
2022/05/18 00:29:16;;;;;;;5.10;2.10;;;19.20;78.20;;;;;;4973213;28;20054;-73
2022/05/18 00:31:46;;;;;;;6.03;2.40;;;19.20;78.10;;;;;;4972748;28;20045;-73
2022/05/18 00:34:14;;;;;;;9.40;2.45;;;19.20;77.90;;;;;;4975767;28;20056;-73
2022/05/18 00:36:41;;;;;;;4.18;2.35;;;19.20;77.80;;;;;;4978787;28;20050;-73
2022/05/18 00:39:08;;;;;;;4.85;2.35;;;19.20;77.90;;;;;;4979839;28;20066;-72
2022/05/18 00:41:37;;;;;;;5.35;1.90;;;19.20;78.20;;;;;;4983977;28;20054;-73
2022/05/18 00:44:05;;;;;;;5.80;2.33;;;19.10;78.20;;;;;;4982547;28;20050;-72
2022/05/18 00:46:32;;;;;;;3.97;1.90;;;19.10;78.30;;;;;;4982222;28;20484;-72
2022/05/18 00:49:03;;;;;;;4.05;2.10;;;19.20;78.30;;;;;;4984082;28;20530;-76
2022/05/18 00:51:33;;;;;;;5.40;2.80;;;19.10;78.40;;;;;;4982284;28;20050;-75
2022/05/18 00:54:10;;;;;;;6.95;2.55;;;19.10;78.60;;;;;;4981354;28;20129;-73
2022/05/18 00:56:43;;;;;;;5.35;2.03;;;19.10;78.70;;;;;;4982964;28;20047;-75
2022/05/18 00:59:14;;;;;;;5.28;2.42;;;19.00;78.90;;;;;;4977373;28;20043;-72
2022/05/18 01:01:42;;;;;;;4.32;2.13;;;19.00;79.00;;;;;;4977289;28;20520;-74
2022/05/18 01:04:12;;;;;;;4.18;2.05;;;19.00;79.10;;;;;;4981698;28;20061;-74
2022/05/18 01:06:46;;;;;;;4.65;2.13;;;19.00;78.90;;;;;;4976642;28;20042;-74
2022/05/18 01:09:18;;;;;;;6.82;2.22;;;19.00;78.90;;;;;;4976164;28;20571;-72
2022/05/18 01:11:47;;;;;;;5.28;2.15;;;19.00;78.90;;;;;;4973886;28;20053;-73
2022/05/18 01:14:17;;;;;;;5.25;2.33;;;19.00;79.00;;;;;;4974467;28;20050;-73
2022/05/18 01:16:46;;;;;;;;;;;19.00;79.00;;;;;;4978014;28;20050;-74
2022/05/18 01:19:34;;;;;;;8.70;2.25;;;18.90;79.10;;;;;;4975702;28;19921;-73
2022/05/18 01:22:09;;;;;;;5.80;2.20;;;19.00;79.20;;;;;;4979306;28;20042;-72
2022/05/18 01:24:46;;;;;;;4.25;1.95;;;19.00;79.20;;;;;;4975525;28;20035;-72
2022/05/18 01:27:15;;;;;;;4.25;2.05;;;18.90;79.20;;;;;;4973872;28;20038;-73
2022/05/18 01:29:42;;;;;;;5.10;2.10;;;18.90;79.30;;;;;;4975553;28;20062;-75
2022/05/18 01:32:16;;;;;;;4.78;2.00;;;18.90;79.40;;;;;;4974198;28;20130;-74
2022/05/18 01:34:43;;;;;;;3.95;2.28;;;18.80;79.40;;;;;;4973185;28;20049;-73
2022/05/18 01:37:10;;;;;;;5.25;2.35;;;18.80;79.50;;;;;;4975284;28;20128;-73
2022/05/18 01:39:41;;;;;;;5.70;2.35;;;18.80;79.30;;;;;;4974999;28;20050;-75
2022/05/18 01:42:20;;;;;;;7.47;2.30;;;18.80;79.40;;;;;;4981772;28;20070;-75
2022/05/18 01:44:47;;;;;;;3.53;2.00;;;18.70;79.50;;;;;;4982816;28;20048;-73
2022/05/18 01:47:14;;;;;;;6.90;2.67;;;18.80;79.30;;;;;;4982304;28;20412;-74
2022/05/18 01:49:43;;;;;;;3.80;1.90;;;18.80;79.20;;;;;;4982204;28;20034;-72
2022/05/18 01:52:11;;;;;;;6.50;2.42;;;18.80;79.30;;;;;;4982582;28;20043;-74
2022/05/18 01:54:40;;;;;;;5.47;2.50;;;18.70;79.40;;;;;;4982193;28;20058;-74
2022/05/18 01:57:08;;;;;;;5.50;2.70;;;18.70;79.40;;;;;;4980902;28;20506;-73
2022/05/18 01:59:37;;;;;;;7.15;2.25;;;18.60;79.60;;;;;;4978699;28;20050;-73
2022/05/18 02:02:06;;;;;;;7.63;2.57;;;18.60;79.70;;;;;;4970129;28;20082;-76
2022/05/18 02:04:33;;;;;;;7.10;2.27;;;18.60;79.80;;;;;;4964317;28;20485;-76
2022/05/18 02:07:00;;;;;;;4.10;2.03;;;18.60;79.80;;;;;;4977056;28;20058;-76
2022/05/18 02:09:29;;;;;;;4.15;2.00;;;18.50;79.80;;;;;;4981516;28;20093;-76
2022/05/18 02:11:56;;;;;;;5.25;2.25;;;18.50;79.90;;;;;;4984632;28;20492;-76
2022/05/18 02:14:24;;;;;;;4.45;2.03;;;18.50;79.90;;;;;;4987896;28;20042;-74
2022/05/18 02:16:56;;;;;;;4.80;2.45;;;18.50;80.00;;;;;;4984771;28;20515;-75
2022/05/18 02:19:23;;;;;;;4.75;1.92;;;18.40;80.00;;;;;;4983040;28;20130;-76
2022/05/18 02:21:52;;;;;;;6.72;1.80;;;18.40;80.20;;;;;;4985853;28;20366;-78
2022/05/18 02:25:00;;;;;;;4.88;2.00;;;18.40;80.20;;;;;;4984627;28;20053;-76
2022/05/18 02:27:28;;;;;;;5.05;2.13;;;18.40;80.20;;;;;;4984824;28;20049;-76
2022/05/18 02:29:55;;;;;;;4.95;2.60;;;18.30;80.30;;;;;;4984247;28;20149;-76
2022/05/18 02:32:26;;;;;;;3.60;2.00;;;18.30;80.40;;;;;;4985484;28;20081;-78
2022/05/18 02:34:53;;;;;;;6.57;2.35;;;18.20;80.50;;;;;;4984549;28;20054;-76
2022/05/18 02:37:20;;;;;;;4.63;2.05;;;18.30;80.40;;;;;;4985065;28;20062;-75
2022/05/18 02:39:47;;;;;;;5.65;2.40;;;18.20;80.40;;;;;;4985650;28;20047;-77
2022/05/18 02:42:14;;;;;;;7.63;2.42;;;18.20;80.40;;;;;;4982745;28;20078;-75
2022/05/18 02:44:41;;;;;;;5.05;2.10;;;18.20;80.50;;;;;;4983384;28;20112;-74
2022/05/18 02:47:08;;;;;;;5.45;2.55;;;18.10;80.50;;;;;;4983649;28;20128;-75
2022/05/18 02:49:36;;;;;;;3.70;2.00;;;18.20;80.40;;;;;;4983909;28;20096;-75
2022/05/18 02:52:03;;;;;;;7.07;2.42;;;18.10;80.50;;;;;;4983246;28;20034;-74
2022/05/18 02:57:28;;;;;;;4.25;2.13;;;18.10;80.60;;;;;;4958062;28;20066;-76
2022/05/18 02:59:55;;;;;;;6.07;2.38;;;18.10;80.50;;;;;;4983043;28;20423;-75
2022/05/18 03:02:22;;;;;;;5.82;2.72;;;18.10;80.50;;;;;;4978649;28;20129;-77
2022/05/18 03:04:50;;;;;;;4.53;2.10;;;18.00;80.50;;;;;;4968133;28;20473;-76
2022/05/18 03:07:17;;;;;;;3.67;2.05;;;18.00;80.60;;;;;;4984283;28;20054;-78
2022/05/18 03:09:44;;;;;;;3.78;1.75;;;18.00;80.60;;;;;;4984398;28;20075;-76
2022/05/18 03:12:12;;;;;;;5.25;2.22;;;18.00;80.50;;;;;;4981454;28;20039;-76
2022/05/18 03:14:38;;;;;;;7.10;2.05;;;17.90;80.60;;;;;;4983630;28;20043;-76
2022/05/18 03:17:05;;;;;;;5.43;2.65;;;17.90;80.60;;;;;;4984514;28;20101;-76
2022/05/18 03:19:32;;;;;;;6.40;2.08;;;17.90;80.70;;;;;;4983947;28;20047;-75
2022/05/18 03:24:45;;;;;;;5.20;2.13;;;17.90;80.70;;;;;;4981577;28;20039;-75
2022/05/18 03:27:12;;;;;;;4.78;1.80;;;17.90;80.70;;;;;;4981912;28;20054;-77
2022/05/18 03:29:42;;;;;;;4.45;1.90;;;17.80;80.80;;;;;;4973687;28;22022;-74
2022/05/18 03:32:09;;;;;;;4.88;2.25;;;17.90;80.80;;;;;;4978342;28;20034;-75
2022/05/18 03:34:36;;;;;;;4.90;2.10;;;17.80;80.90;;;;;;4977300;28;20058;-75
2022/05/18 03:37:05;;;;;;;4.25;1.92;;;17.80;81.00;;;;;;4977288;28;20038;-78
2022/05/18 03:39:31;;;;;;;4.88;2.03;;;17.80;81.00;;;;;;4979134;28;20061;-76
2022/05/18 03:41:59;;;;;;;5.47;2.53;;;17.80;81.00;;;;;;4978462;28;20042;-77
2022/05/18 03:44:26;;;;;;;3.97;2.22;;;17.80;80.90;;;;;;4978772;28;20074;-78
2022/05/18 03:46:53;;;;;;;4.45;2.17;;;17.80;81.00;;;;;;4981224;28;20049;-76
2022/05/18 03:49:20;;;;;;;6.13;2.22;;;17.70;81.00;;;;;;4976436;28;20039;-78
2022/05/18 03:51:49;;;;;;;4.78;1.85;;;17.70;81.10;;;;;;4977113;28;20070;-77
2022/05/18 03:54:17;;;;;;;5.20;2.33;;;17.70;81.10;;;;;;4985614;28;20042;-77
2022/05/18 03:56:44;;;;;;;7.72;2.28;;;17.70;81.10;;;;;;4984486;28;20073;-74
2022/05/18 03:59:11;;;;;;;5.43;2.45;;;17.70;81.20;;;;;;4960797;28;20166;-78
2022/05/18 04:01:41;;;;;;;5.22;2.40;;;17.60;81.20;;;;;;4974248;28;20054;-77
2022/05/18 04:04:09;;;;;;;4.25;1.80;;;17.70;81.10;;;;;;4962901;28;20148;-76
2022/05/18 04:06:36;;;;;;;5.45;2.17;;;17.60;81.20;;;;;;4974961;28;20441;-78
2022/05/18 04:09:03;;;;;;;4.82;2.00;;;17.60;81.20;;;;;;4976925;28;20121;-76
2022/05/18 04:11:32;;;;;;;4.78;2.70;;;17.70;81.10;;;;;;4979729;28;20062;-76
2022/05/18 04:13:59;;;;;;;4.50;2.22;;;17.60;81.10;;;;;;4984317;28;20046;-74
2022/05/18 04:16:27;;;;;;;6.22;2.97;;;17.60;81.20;;;;;;4983678;28;20058;-77
2022/05/18 04:18:54;;;;;;;5.88;2.35;;;17.60;81.20;;;;;;4982352;28;20152;-76
2022/05/18 04:21:21;;;;;;;4.95;2.33;;;17.60;81.20;;;;;;4983246;28;20051;-75
2022/05/18 04:23:49;;;;;;;4.20;2.35;;;17.60;81.30;;;;;;4981895;28;20118;-77
2022/05/18 04:26:16;;;;;;;3.35;1.88;;;17.60;81.30;;;;;;4982809;28;20049;-78
2022/05/18 04:28:45;;;;;;;6.60;2.38;;;17.70;81.30;;;;;;4983843;28;20122;-76
2022/05/18 04:31:12;;;;;;;4.50;2.55;;;17.60;81.30;;;;;;4982525;28;20132;-77
2022/05/18 04:33:40;;;;;;;4.47;2.45;;;17.70;81.30;;;;;;4984133;28;20056;-76
2022/05/18 04:36:07;;;;;;;5.18;2.42;;;17.70;81.20;;;;;;4983526;28;20035;-75
2022/05/18 04:38:34;;;;;;;4.88;2.20;;;17.80;81.20;;;;;;4983136;28;20066;-76
2022/05/18 04:41:02;;;;;;;5.03;2.35;;;17.70;81.20;;;;;;4980306;28;20046;-77
2022/05/18 04:43:32;;;;;;;4.20;2.45;;;17.80;81.10;;;;;;4978062;28;20119;-76
2022/05/18 04:46:00;;;;;;;10.05;2.70;;;17.80;81.30;;;;;;4975416;28;20066;-76
2022/05/18 04:48:30;;;;;;;6.13;2.70;;;17.90;81.30;;;;;;4976273;28;20057;-78
2022/05/18 04:50:57;;;;;;;8.18;2.85;;;17.80;81.30;;;;;;4949593;28;20038;-76
2022/05/18 04:53:24;;;;;;;4.55;2.45;;;17.80;81.40;;;;;;4977572;28;20055;-77
2022/05/18 04:55:51;;;;;;;4.70;2.50;;;17.90;81.40;;;;;;4983311;28;20703;-77
2022/05/18 04:58:18;;;;;;;6.60;2.45;;;17.90;81.20;;;;;;4981927;28;20057;-75
2022/05/18 05:00:49;;;;;;;5.80;2.20;;;17.90;81.20;;;;;;4973050;28;20042;-78
2022/05/18 05:03:17;;;;;;;4.07;2.13;;;18.00;81.20;;;;;;4977772;28;20078;-76
2022/05/18 05:05:44;;;;;;;5.97;2.58;;;18.00;81.20;;;;;;4978041;28;20042;-77
2022/05/18 05:08:11;;;;;;;5.15;2.97;;;18.00;81.30;;;;;;4979636;28;20042;-77
2022/05/18 05:10:38;;;;;;;6.68;2.72;;;18.00;81.30;;;;;;4977018;28;20050;-75
2022/05/18 05:13:05;;;;;;;5.38;2.33;;;18.10;81.10;;;;;;4974394;28;20067;-77
2022/05/18 05:15:32;;;;;;;3.97;2.33;;;18.10;81.00;;;;;;4975173;28;20045;-79
2022/05/18 05:17:59;;;;;;;5.18;2.17;;;18.10;80.90;;;;;;4977795;28;20042;-76
2022/05/18 05:20:27;;;;;;;7.82;2.47;;;18.20;80.80;;;;;;4977232;28;20042;-77
2022/05/18 05:22:54;;;;;;;6.32;2.60;;;18.10;80.70;;;;;;4977257;28;20064;-76
2022/05/18 05:25:21;;;;;;;4.75;2.40;;;18.20;80.50;;;;;;4975714;28;20078;-76
2022/05/18 05:27:48;;;;;;;4.93;2.55;;;18.20;80.40;;;;;;4979424;28;20053;-78
2022/05/18 05:30:15;;;;;;;6.13;2.35;;;18.20;80.40;;;;;;4975589;28;20078;-77
2022/05/18 05:32:43;;;;;;;6.07;2.72;;;18.20;80.20;;;;;;4975219;28;20038;-75
2022/05/18 05:35:12;;;;;;;4.57;2.28;;;18.20;80.20;;;;;;4977815;28;20129;-76
2022/05/18 05:37:41;;;;;;;6.20;2.20;;;18.20;80.20;;;;;;4972660;28;20046;-78
2022/05/18 05:40:09;;;;;;;5.68;2.20;;;18.20;80.30;;;;;;4976164;28;20039;-76
2022/05/18 05:42:40;;;;;;;3.58;2.10;;;18.20;80.40;;;;;;4977852;28;20502;-76
2022/05/18 05:45:08;;;;;;;4.93;2.33;;;18.20;80.50;;;;;;4976191;28;20649;-77
2022/05/18 05:47:35;;;;;;;6.20;2.67;;;18.20;80.70;;;;;;4977097;28;20050;-76
2022/05/18 05:50:03;;;;;;;6.97;2.60;;;18.20;80.70;;;;;;4976124;28;20046;-76
2022/05/18 05:52:31;;;;;;;4.70;2.50;;;18.20;80.60;;;;;;4975195;28;20555;-78
2022/05/18 05:54:59;;;;;;;4.55;2.42;;;18.20;80.70;;;;;;4977450;28;20058;-78
2022/05/18 05:57:26;;;;;;;6.50;2.33;;;18.30;80.60;;;;;;4977626;28;20046;-79
2022/05/18 05:59:53;;;;;;;5.88;2.38;;;18.30;80.60;;;;;;4975834;28;20042;-77
2022/05/18 06:02:20;;;;;;;5.60;2.03;;;18.30;80.50;;;;;;4973424;28;20047;-76
2022/05/18 06:04:47;;;;;;;6.13;2.17;;;18.30;80.50;;;;;;4974757;28;20046;-76
2022/05/18 06:07:15;;;;;;;3.97;1.77;;;18.40;80.20;;;;;;4976292;28;20050;-76
2022/05/18 06:09:42;;;;;;;5.35;2.10;;;18.40;80.30;;;;;;4975306;28;20038;-75
2022/05/18 06:12:11;;;;;;;6.07;2.65;;;18.40;80.00;;;;;;4972151;28;20039;-77
2022/05/18 06:14:38;;;;;;;3.85;2.10;;;18.40;80.00;;;;;;4976671;28;20047;-76
2022/05/18 06:17:05;;;;;;;6.43;2.78;;;18.50;79.90;;;;;;4976599;28;20047;-76
2022/05/18 06:19:33;;;;;;;4.97;2.08;;;18.60;79.70;;;;;;4978287;28;20059;-78
2022/05/18 06:22:01;;;;;;;4.85;1.90;;;18.60;79.60;;;;;;4974909;28;20092;-77
2022/05/18 06:24:28;;;;;;;4.20;2.22;;;18.60;79.40;;;;;;4973959;28;20050;-76
2022/05/18 06:26:57;;;;;;;4.65;2.17;;;18.60;79.10;;;;;;4974603;28;20047;-75
2022/05/18 06:29:26;;;;;;;4.45;1.60;;;18.70;79.00;;;;;;4975356;28;20419;-75
2022/05/18 06:31:53;;;;;;;3.03;1.90;;;18.70;78.90;;;;;;4973755;28;20054;-78
2022/05/18 06:34:21;;;;;;;5.22;2.50;;;18.80;78.80;;;;;;4975849;28;20049;-76
2022/05/18 06:36:49;;;;;;;4.75;2.30;;;18.90;78.50;;;;;;4976722;28;20038;-79
2022/05/18 06:39:18;;;;;;;6.13;2.13;;;19.10;78.40;;;;;;4976361;28;20050;-75
2022/05/18 06:41:47;;;;;;;4.70;2.28;;;19.20;78.10;;;;;;4976002;28;20046;-75
2022/05/18 06:44:14;;;;;;;8.18;2.28;;;19.30;77.70;;;;;;4978103;28;20047;-77
2022/05/18 06:46:42;;;;;;;4.80;2.17;;;19.50;77.60;;;;;;4975920;28;20411;-78
2022/05/18 06:49:12;;;;;;;6.93;2.42;;;19.60;77.20;;;;;;4978525;28;20404;-77
2022/05/18 06:51:40;;;;;;;6.15;2.20;;;19.70;76.80;;;;;;4958754;28;20051;-75
2022/05/18 06:54:08;;;;;;;4.63;1.92;;;19.80;76.70;;;;;;4977243;28;20042;-76
2022/05/18 06:56:39;;;;;;;4.65;2.20;;;20.00;76.10;;;;;;4980437;28;20050;-78
2022/05/18 06:59:07;;;;;;;7.22;2.65;;;20.10;75.50;;;;;;4981060;28;20053;-76
2022/05/18 07:01:34;;;;;;;5.68;2.42;;;20.30;75.30;;;;;;4978381;28;20046;-75
2022/05/18 07:04:04;;;;;;;5.90;2.17;;;20.40;75.00;;;;;;4976542;28;20042;-76
2022/05/18 07:06:34;;;;;;;5.80;2.00;;;20.50;75.20;;;;;;4976925;28;20975;-76
2022/05/18 07:09:01;;;;;;;8.50;2.75;;;20.70;73.90;;;;;;4978596;28;20068;-77
2022/05/18 07:11:28;;;;;;;5.00;2.17;;;20.90;73.70;;;;;;4976528;28;20046;-79
2022/05/18 07:13:58;;;;;;;6.22;2.20;;;21.00;72.80;;;;;;4976533;28;20034;-77
2022/05/18 07:16:27;;;;;;;9.13;2.50;;;21.20;72.50;;;;;;4979573;28;20464;-79
2022/05/18 07:18:55;;;;;;;5.07;1.95;;;21.30;72.00;;;;;;4981230;28;20091;-76
2022/05/18 07:21:25;;;;;;;4.18;2.50;;;21.50;72.20;;;;;;4981051;28;20049;-78
2022/05/18 07:23:52;;;;;;;4.25;2.00;;;21.60;71.30;;;;;;4978158;28;20109;-78
2022/05/18 07:26:20;;;;;;;4.88;1.88;;;21.70;71.10;;;;;;4978411;28;20042;-76
2022/05/18 07:28:47;;;;;;;3.85;1.95;;;21.90;70.60;;;;;;4977343;28;20459;-77
2022/05/18 07:31:15;;;;;;;6.00;2.92;;;22.00;71.30;;;;;;4980951;28;20059;-75
2022/05/18 07:33:42;;;;;;;5.00;2.75;;;22.10;70.40;;;;;;4978647;28;20095;-77
2022/05/18 07:36:09;;;;;;;9.30;2.90;;;22.20;69.90;;;;;;4975613;28;20057;-77
2022/05/18 07:38:39;;;;;;;6.25;2.53;;;22.30;69.00;;;;;;4978158;28;20168;-77
2022/05/18 07:41:10;;;;;;;6.45;2.65;;;22.30;68.80;;;;;;4982832;28;20096;-76
2022/05/18 07:43:37;;;;;;;4.80;2.75;;;22.30;69.40;;;;;;4978746;28;20065;-77
2022/05/18 07:46:05;;;;;;;6.47;2.10;;;22.30;69.00;;;;;;4978595;28;20476;-77
2022/05/18 07:48:32;;;;;;;5.85;2.33;;;22.30;69.00;;;;;;4975999;28;20053;-77
2022/05/18 07:50:59;;;;;;;3.92;1.63;;;22.40;68.70;;;;;;4978017;28;20042;-77
2022/05/18 07:53:26;;;;;;;7.20;1.80;;;22.30;68.70;;;;;;4976159;28;20051;-77
2022/05/18 07:55:55;;;;;;;3.70;2.28;;;22.40;68.60;;;;;;4975397;28;20043;-75
2022/05/18 07:58:23;;;;;;;3.63;1.63;;;22.40;69.00;;;;;;4982349;28;20039;-78
2022/05/18 08:00:50;;;;;;;2.65;1.52;;;22.40;69.10;;;;;;4982100;28;20043;-76
2022/05/18 08:03:17;;;;;;;3.15;1.80;;;22.40;69.40;;;;;;4982966;28;20047;-76
2022/05/18 08:05:46;;;;;;;3.30;1.70;;;22.50;69.30;;;;;;4980811;28;20523;-75
2022/05/18 08:08:15;;;;;;;5.82;1.70;;;22.50;69.20;;;;;;4982440;28;20075;-76
2022/05/18 08:16:15;;;;;;;3.65;2.08;;;22.80;69.40;;;;;;4983487;28;20130;-76
2022/05/18 08:18:43;;;;;;;3.47;1.92;;;22.80;69.40;;;;;;4984626;28;20121;-77
2022/05/18 08:21:10;;;;;;;5.68;2.10;;;22.90;68.60;;;;;;4984165;28;20044;-77
2022/05/18 08:23:38;;;;;;;4.75;1.98;;;23.00;68.50;;;;;;4983653;28;20041;-78
2022/05/18 08:26:06;;;;;;;4.55;2.55;;;23.10;68.10;;;;;;4984002;28;20042;-76
2022/05/18 08:28:35;;;;;;;4.30;1.70;;;23.10;67.90;;;;;;4985099;28;20038;-75
2022/05/18 08:31:04;;;;;;;;;;;23.30;68.10;;;;;;4982251;28;20541;-76
2022/05/18 08:33:32;;;;;;;4.70;2.42;;;23.40;67.80;;;;;;4980994;28;19948;-77
2022/05/18 08:35:59;;;;;;;7.07;2.38;;;23.60;68.30;;;;;;4977269;28;20042;-77
2022/05/18 08:38:26;;;;;;;5.53;2.88;;;23.70;68.40;;;;;;4977840;28;20042;-76
2022/05/18 08:40:58;;;;;;;6.72;3.05;;;23.90;67.40;;;;;;4976315;28;20077;-78
2022/05/18 08:43:28;;;;;;;5.20;2.58;;;24.10;66.70;;;;;;4976887;28;20146;-79
2022/05/18 08:46:04;;;;;;;5.63;2.60;;;24.30;66.20;;;;;;4976540;28;20053;-76
2022/05/18 08:48:43;;;;;;;4.88;2.28;;;24.40;65.60;;;;;;4976820;28;20905;-77
2022/05/18 08:51:48;;;;;;;4.53;2.20;;;24.50;65.40;;;;;;4969767;28;20147;-76
2022/05/18 08:54:40;;;;;;;3.97;1.90;;;24.60;64.40;;;;;;4940592;28;20051;-79
2022/05/18 08:57:15;;;;;;;8.20;2.60;;;24.60;64.20;;;;;;4979492;28;20837;-77
2022/05/18 08:59:43;;;;;;;6.22;2.40;;;24.70;63.70;;;;;;4978843;28;20058;-76
2022/05/18 09:02:16;;;;;;;8.00;2.30;;;24.80;64.60;;;;;;4974840;28;23131;-78
2022/05/18 09:04:51;;;;;;;4.35;2.25;;;24.90;63.00;;;;;;4978709;28;20093;-76
2022/05/18 09:07:23;;;;;;;6.03;2.30;;;25.00;63.00;;;;;;4978678;28;20043;-77
2022/05/18 09:12:39;;;;;;;4.70;2.20;;;25.20;62.10;;;;;;4975212;28;20492;-79
2022/05/18 09:15:09;;;;;;;4.10;2.03;;;25.10;62.20;;;;;;4973413;28;20038;-77
2022/05/18 09:17:46;;;;;;;3.85;1.80;;;25.30;62.60;;;;;;4976730;28;20063;-76
2022/05/18 09:20:20;;;;;;;5.03;2.08;;;25.40;61.70;;;;;;4975859;28;20380;-76
2022/05/18 09:23:12;;;;;;;3.17;1.88;;;25.40;61.30;;;;;;4976806;28;20118;-77
2022/05/18 09:25:48;;;;;;;3.90;2.00;;;25.50;61.80;;;;;;4963596;28;20055;-77
2022/05/18 09:28:26;;;;;;;4.07;2.17;;;25.50;60.60;;;;;;4973300;28;20045;-77
2022/05/18 09:31:04;;;;;;;3.83;2.13;;;25.60;61.50;;;;;;4974372;28;20124;-77
2022/05/18 09:33:45;;;;;;;4.10;2.37;;;25.60;60.60;;;;;;4977653;28;20073;-77
2022/05/18 09:36:24;;;;;;;7.00;2.88;;;25.60;60.40;;;;;;4976166;28;20035;-75
2022/05/18 09:38:59;;;;;;;8.63;3.33;;;25.70;60.90;;;;;;4975981;28;20061;-76
2022/05/18 09:41:30;;;;;;;5.72;2.90;;;25.80;60.60;;;;;;4975089;28;20519;-78
2022/05/18 09:44:02;;;;;;;6.10;3.13;;;25.80;59.80;;;;;;4974551;28;20042;-75
2022/05/18 09:46:31;;;;;;;4.57;2.40;;;25.80;59.40;;;;;;4977686;28;20552;-75
2022/05/18 09:49:07;;;;;;;6.15;2.60;;;25.80;58.90;;;;;;4973122;28;20522;-78
2022/05/18 09:51:35;;;;;;;5.18;2.72;;;25.80;59.00;;;;;;4957836;28;20051;-77
2022/05/18 09:54:02;;;;;;;3.78;2.00;;;25.80;58.20;;;;;;4974160;28;20060;-78
2022/05/18 09:56:37;;;;;;;4.88;2.30;;;25.80;57.60;;;;;;4976929;28;20078;-78
2022/05/18 09:59:08;;;;;;;3.83;2.20;;;25.80;57.80;;;;;;4974509;28;20038;-76
2022/05/18 10:09:52;;;;;;;3.38;2.15;;;26.10;57.70;;;;;;4975736;28;20086;-77
2022/05/18 10:12:23;;;;;;;7.00;2.42;;;26.30;57.60;;;;;;4977329;28;20046;-77
2022/05/18 10:14:58;;;;;;;3.65;1.85;;;26.30;57.40;;;;;;4973020;28;20053;-78
2022/05/18 10:17:33;;;;;;;6.10;2.13;;;26.30;57.80;;;;;;4977059;28;20046;-76
2022/05/18 10:20:06;;;;;;;2.95;1.83;;;26.20;56.10;;;;;;4975828;28;20085;-76
2022/05/18 10:22:39;;;;;;;4.18;2.13;;;26.10;56.00;;;;;;4975990;28;20113;-78
2022/05/18 10:25:11;;;;;;;4.07;2.00;;;26.10;55.90;;;;;;4977938;28;20124;-77
2022/05/18 10:27:39;;;;;;;4.85;2.10;;;26.10;56.20;;;;;;4975643;28;20506;-76
2022/05/18 10:30:10;;;;;;;3.70;1.70;;;26.00;55.90;;;;;;4978816;28;20415;-77
2022/05/18 10:32:51;;;;;;;3.67;1.95;;;26.10;56.20;;;;;;4979077;28;20186;-76
2022/05/18 10:35:35;;;;;;;3.53;1.70;;;26.10;55.30;;;;;;4978868;28;20047;-77
2022/05/18 10:38:03;;;;;;;3.67;1.73;;;26.10;54.90;;;;;;4980703;28;20061;-75
2022/05/18 10:40:30;;;;;;;3.72;1.75;;;26.10;54.70;;;;;;4978169;28;22044;-76
2022/05/18 10:43:23;;;;;;;3.58;1.65;;;26.20;54.20;;;;;;4981864;28;20074;-78
2022/05/18 10:45:56;;;;;;;2.75;1.60;;;26.30;53.90;;;;;;4962887;28;20058;-78
2022/05/18 10:48:27;;;;;;;2.90;1.40;;;26.40;53.10;;;;;;4980634;28;20061;-78
2022/05/18 10:51:03;;;;;;;3.42;1.48;;;26.40;53.30;;;;;;4977081;28;20128;-79
2022/05/18 10:53:34;;;;;;;3.08;1.30;;;26.30;53.70;;;;;;4980917;28;20066;-77
2022/05/18 10:56:07;;;;;;;4.72;1.73;;;26.30;53.60;;;;;;4980004;28;20038;-75
2022/05/18 10:58:37;;;;;;;3.83;1.75;;;26.30;53.60;;;;;;4980676;28;20042;-77
2022/05/18 11:01:09;;;;;;;3.97;1.67;;;26.30;53.80;;;;;;4975141;28;20049;-77
2022/05/18 11:03:44;;;;;;;3.75;1.55;;;26.30;53.50;;;;;;4978197;28;20153;-77
2022/05/18 11:06:17;;;;;;;4.93;2.10;;;26.30;52.70;;;;;;4977856;28;20046;-77
2022/05/18 11:08:44;;;;;;;4.40;1.80;;;26.30;52.80;;;;;;4978756;28;20065;-75
2022/05/18 11:11:21;;;;;;;3.72;1.70;;;26.40;52.40;;;;;;4977483;28;20042;-76
2022/05/18 11:14:09;;;;;;;5.43;1.92;;;26.50;51.80;;;;;;4978837;28;20057;-75
2022/05/18 11:16:47;;;;;;;4.68;1.60;;;26.50;51.70;;;;;;4978292;28;20055;-77
2022/05/18 11:19:24;;;;;;;2.88;1.65;;;26.50;51.60;;;;;;4978009;28;20058;-75
2022/05/18 11:22:01;;;;;;;2.72;1.42;;;26.40;51.70;;;;;;4979556;28;20049;-76
2022/05/18 11:24:36;;;;;;;3.95;1.83;;;26.30;51.60;;;;;;4978152;28;20069;-76
2022/05/18 11:27:09;;;;;;;3.75;1.70;;;26.30;51.70;;;;;;4978040;28;20092;-76
2022/05/18 11:29:53;;;;;;;3.33;1.40;;;26.30;51.90;;;;;;4976356;28;20050;-77
2022/05/18 11:32:31;;;;;;;5.35;1.40;;;26.20;51.70;;;;;;4977609;28;20039;-77
2022/05/18 11:35:14;;;;;;;4.38;1.48;;;26.30;52.10;;;;;;4977974;28;20093;-74
2022/05/18 11:38:04;;;;;;;3.53;1.52;;;26.20;51.50;;;;;;4976258;28;20042;-76
2022/05/18 11:40:38;;;;;;;4.80;1.60;;;26.20;51.60;;;;;;4978688;28;20043;-77
2022/05/18 11:43:28;;;;;;;4.07;1.52;;;26.20;51.90;;;;;;4975975;28;20126;-76
2022/05/18 11:46:19;;;;;;;3.92;1.90;;;26.40;51.30;;;;;;4980137;28;22130;-78
2022/05/18 11:48:54;;;;;;;3.85;1.70;;;26.30;51.30;;;;;;4977733;28;20385;-77
2022/05/18 11:51:31;;;;;;;4.45;1.63;;;26.30;51.90;;;;;;4977595;28;20042;-79
2022/05/18 11:54:09;;;;;;;3.70;1.70;;;26.30;51.70;;;;;;4978019;28;20528;-77
2022/05/18 11:56:46;;;;;;;4.45;1.75;;;26.40;51.60;;;;;;4978830;28;20040;-77
2022/05/18 11:59:45;;;;;;;4.70;1.30;;;26.50;52.30;;;;;;4978441;28;20049;-77
2022/05/18 12:02:36;;;;;;;4.63;1.40;;;26.60;51.90;;;;;;4971788;28;20058;-77
2022/05/18 12:05:33;;;;;;;1.88;1.48;;;26.60;52.00;;;;;;4980860;28;20100;-78
2022/05/18 12:08:27;;;;;;;3.38;1.65;;;26.60;51.60;;;;;;4976190;28;20047;-77
2022/05/18 12:11:05;;;;;;;2.47;1.20;;;26.60;51.70;;;;;;4977035;28;20063;-77
2022/05/18 12:13:42;;;;;;;4.53;1.55;;;26.60;51.40;;;;;;4981913;28;20484;-78
2022/05/18 12:16:15;;;;;;;3.50;1.52;;;26.60;51.30;;;;;;4982675;28;20125;-76
2022/05/18 12:18:46;;;;;;;2.58;1.40;;;26.60;51.20;;;;;;4984121;28;20049;-76
2022/05/18 12:21:18;;;;;;;3.75;1.30;;;26.60;51.30;;;;;;4983523;28;20416;-76
2022/05/18 12:23:51;;;;;;;4.05;1.60;;;26.50;51.60;;;;;;4984176;28;20047;-74
2022/05/18 12:26:21;;;;;;;2.38;1.38;;;26.50;51.20;;;;;;4983226;28;20042;-75
2022/05/18 12:28:48;;;;;;;3.70;1.33;;;26.50;51.30;;;;;;4982958;28;20039;-76
2022/05/18 12:31:18;;;;;;;3.38;1.35;;;26.50;51.60;;;;;;4982375;28;20054;-76
2022/05/18 12:33:47;;;;;;;2.72;1.40;;;26.50;52.10;;;;;;4981216;28;20148;-78
2022/05/18 12:36:17;;;;;;;4.43;1.80;;;26.40;52.10;;;;;;4981056;28;20043;-78
2022/05/18 12:38:56;;;;;;;4.70;2.67;;;26.40;52.50;;;;;;4979569;28;20046;-77
2022/05/18 12:41:30;;;;;;;4.32;2.78;;;26.40;52.20;;;;;;4974500;28;20093;-76
2022/05/18 12:44:07;;;;;;;5.47;2.25;;;26.40;52.10;;;;;;4973739;28;20034;-74
2022/05/18 12:46:38;;;;;;;3.45;1.80;;;26.40;52.00;;;;;;4978776;28;20038;-75
2022/05/18 12:49:10;;;;;;;6.18;2.00;;;26.30;52.20;;;;;;4983835;28;20479;-74
2022/05/18 12:51:45;;;;;;;6.53;1.77;;;26.30;52.30;;;;;;4981959;28;20511;-74
2022/05/18 12:54:33;;;;;;;5.45;1.40;;;26.30;52.40;;;;;;4981419;28;20046;-74
2022/05/18 12:57:42;;;;;;;3.50;1.90;;;26.30;52.00;;;;;;4981482;28;20079;-74
2022/05/18 13:00:40;;;;;;;5.47;1.60;;;26.30;51.90;;;;;;4977639;28;20057;-75
2022/05/18 13:03:25;;;;;;;3.27;1.50;;;26.40;52.10;;;;;;4976978;28;20038;-77
2022/05/18 13:05:55;;;;;;;3.97;1.60;;;26.40;52.00;;;;;;4973961;28;20050;-78
2022/05/18 13:09:07;;;;;;;3.85;1.85;;;26.40;51.90;;;;;;4981705;28;20039;-76
2022/05/18 13:11:46;;;;;;;4.20;1.80;;;26.30;51.90;;;;;;4981024;28;20047;-78
2022/05/18 13:14:36;;;;;;;2.60;1.63;;;26.20;52.00;;;;;;4976362;28;20042;-73
2022/05/18 13:17:21;;;;;;;4.30;1.80;;;26.10;52.30;;;;;;4976291;28;20056;-77
2022/05/18 13:19:58;;;;;;;4.25;1.40;;;26.10;52.20;;;;;;4975982;28;20050;-79
2022/05/18 13:22:34;;;;;;;3.13;1.50;;;26.10;52.50;;;;;;4975332;28;20494;-78
2022/05/18 13:25:04;;;;;;;2.78;1.73;;;26.10;52.50;;;;;;4976215;28;20047;-77
2022/05/18 13:27:40;;;;;;;3.08;1.50;;;26.10;51.90;;;;;;4979004;28;20035;-79
2022/05/18 13:30:12;;;;;;;4.68;1.85;;;26.10;52.00;;;;;;4976773;28;20055;-76
2022/05/18 13:32:43;;;;;;;5.20;1.60;;;26.10;51.90;;;;;;4978185;28;20065;-78